Time;durP1;ratioP1;P1;durP2;ratioP2;P2;SDS_P1;SDS_P2;PMS_P1;PMS_P2;Temp;Humidity;BMP_temperature;BMP_pressure;BME280_temperature;BME280_humidity;BME280_pressure;Samples;Min_cycle;Max_cycle;Signal;HPM_P1;HPM_P2
2023/03/12 00:02:16;;;;;;;;;;;;;;;0.91;nan;98257.25;5016715;28;20051;-61
2023/03/12 00:04:41;;;;;;;;;;;;;;;0.81;nan;98260.47;5015464;28;20027;-60
2023/03/12 00:07:07;;;;;;;;;;;;;;;0.76;nan;98267.16;5014093;28;19920;-61
2023/03/12 00:09:34;;;;;;;;;;;;;;;0.74;nan;98256.19;5014884;28;21238;-61
2023/03/12 00:11:59;;;;;;;;;;;;;;;0.65;nan;98258.59;5013077;28;19925;-60
2023/03/12 00:14:25;;;;;;;;;;;;;;;0.62;nan;98263.59;5015860;28;20277;-61
2023/03/12 00:16:51;;;;;;;;;;;;;;;0.57;nan;98260.16;5016130;28;20007;-61
2023/03/12 00:19:16;;;;;;;;;;;;;;;0.53;nan;98267.66;5015590;28;19925;-60
2023/03/12 00:21:42;;;;;;;;;;;;;;;0.52;nan;98274.38;5015633;28;19925;-61
2023/03/12 00:24:08;;;;;;;;;;;;;;;0.44;nan;98273.41;5014655;28;20240;-61
2023/03/12 00:26:33;;;;;;;;;;;;;;;0.47;nan;98278.47;5007026;28;19925;-61
2023/03/12 00:28:58;;;;;;;;;;;;;;;0.37;nan;98279.19;5010885;28;19928;-61
2023/03/12 00:31:26;;;;;;;;;;;;;;;0.37;nan;98281.72;5011594;28;19932;-61
2023/03/12 00:33:52;;;;;;;;;;;;;;;0.33;nan;98285.88;5013099;28;20267;-60
2023/03/12 00:36:18;;;;;;;;;;;;;;;0.39;nan;98285.09;5008679;28;20102;-61
2023/03/12 00:38:44;;;;;;;;;;;;;;;0.43;nan;98284.31;5007461;28;19975;-61
2023/03/12 00:41:10;;;;;;;;;;;;;;;0.44;nan;98296.94;5012042;28;19921;-61
2023/03/12 00:43:35;;;;;;;;;;;;;;;0.42;nan;98285.97;5012159;28;19960;-60
2023/03/12 00:46:01;;;;;;;;;;;;;;;0.49;nan;98286.94;5013188;28;19925;-61
2023/03/12 00:48:27;;;;;;;;;;;;;;;0.58;nan;98294.63;5010710;28;20459;-60
2023/03/12 00:50:52;;;;;;;;;;;;;;;0.62;nan;98293.00;5011567;28;19982;-61
2023/03/12 00:53:21;;;;;;;;;;;;;;;0.58;nan;98289.59;5011757;28;20506;-60
2023/03/12 00:55:46;;;;;;;;;;;;;;;0.53;nan;98291.19;5013409;28;19921;-63
2023/03/12 00:58:12;;;;;;;;;;;;;;;0.58;nan;98291.25;5011838;28;20367;-61
2023/03/12 01:00:40;;;;;;;;;;;;;;;0.65;nan;98291.38;5012257;28;19932;-61
2023/03/12 01:03:06;;;;;;;;;;;;;;;0.64;nan;98296.38;5012032;28;19927;-63
2023/03/12 01:05:36;;;;;;;;;;;;;;;0.58;nan;98294.63;5012585;28;20220;-60
2023/03/12 01:08:05;;;;;;;;;;;;;;;0.61;nan;98297.19;5012715;28;19931;-61
2023/03/12 01:10:31;;;;;;;;;;;;;;;0.59;nan;98283.72;5012389;28;19932;-60
2023/03/12 01:12:56;;;;;;;;;;;;;;;0.57;nan;98289.56;5012091;28;19921;-60
2023/03/12 01:15:22;;;;;;;;;;;;;;;0.57;nan;98295.47;5011595;28;20284;-60
2023/03/12 01:17:48;;;;;;;;;;;;;;;0.47;nan;98294.47;5014162;28;20401;-59
2023/03/12 01:20:14;;;;;;;;;;;;;;;0.38;nan;98290.97;5028764;28;20387;-61
2023/03/12 01:22:39;;;;;;;;;;;;;;;0.39;nan;98295.16;5009854;28;19921;-59
2023/03/12 01:25:05;;;;;;;;;;;;;;;0.48;nan;98290.28;5011891;28;20004;-60
2023/03/12 01:27:31;;;;;;;;;;;;;;;0.50;nan;98292.84;5012139;28;20019;-61
2023/03/12 01:29:56;;;;;;;;;;;;;;;0.62;nan;98298.06;5010351;28;20368;-62
2023/03/12 01:32:22;;;;;;;;;;;;;;;0.68;nan;98295.63;5009911;28;20360;-60
2023/03/12 01:34:47;;;;;;;;;;;;;;;0.69;nan;98292.25;5008989;28;19932;-60
2023/03/12 01:37:13;;;;;;;;;;;;;;;0.65;nan;98296.41;5011420;28;19925;-60
2023/03/12 01:39:39;;;;;;;;;;;;;;;0.61;nan;98301.38;5010574;28;19979;-63
2023/03/12 01:42:05;;;;;;;;;;;;;;;0.57;nan;98310.59;5016297;28;20353;-61
2023/03/12 01:44:47;;;;;;;;;;;;;;;0.54;nan;98299.63;5014370;28;19921;-60
2023/03/12 01:47:13;;;;;;;;;;;;;;;0.58;nan;98316.50;5015066;28;20048;-60
2023/03/12 01:49:38;;;;;;;;;;;;;;;0.50;nan;98321.41;5014521;28;20291;-60
2023/03/12 01:52:13;;;;;;;;;;;;;;;0.47;nan;98323.88;5010265;28;20573;-60
2023/03/12 01:54:46;;;;;;;;;;;;;;;0.47;nan;98331.44;5007270;28;19922;-60
2023/03/12 01:57:13;;;;;;;;;;;;;;;0.45;nan;98335.63;5012369;28;19940;-59
2023/03/12 02:00:00;;;;;;;;;;;;;;;0.43;nan;98328.03;5008443;28;19921;-60
2023/03/12 02:02:28;;;;;;;;;;;;;;;0.33;nan;98320.31;5011634;28;19978;-60
2023/03/12 02:05:11;;;;;;;;;;;;;;;0.37;nan;98317.00;5019779;28;19925;-60
2023/03/12 02:07:37;;;;;;;;;;;;;;;0.29;nan;98306.81;5012473;28;19944;-61
2023/03/12 02:10:04;;;;;;;;;;;;;;;0.25;nan;98315.16;5009924;28;19921;-60
2023/03/12 02:12:30;;;;;;;;;;;;;;;0.21;nan;98302.47;5010981;28;20039;-60
2023/03/12 02:14:55;;;;;;;;;;;;;;;0.11;nan;98311.53;5019546;28;20450;-61
2023/03/12 02:17:22;;;;;;;;;;;;;;;0.07;nan;98302.22;5013643;28;20340;-60
2023/03/12 02:20:12;;;;;;;;;;;;;;;-0.01;nan;98307.16;5012626;28;20039;-60
2023/03/12 02:22:39;;;;;;;;;;;;;;;0.17;nan;98313.31;5012167;28;20399;-59
2023/03/12 02:25:14;;;;;;;;;;;;;;;0.24;nan;98315.97;5012255;28;20149;-60
2023/03/12 02:27:41;;;;;;;;;;;;;;;0.23;nan;98315.94;5010968;28;19928;-63
2023/03/12 02:30:06;;;;;;;;;;;;;;;0.17;nan;98313.31;5006964;28;19917;-60
2023/03/12 02:32:34;;;;;;;;;;;;;;;0.18;nan;98317.50;5006661;28;19924;-60
2023/03/12 02:35:01;;;;;;;;;;;;;;;0.09;nan;98322.41;5014361;28;19921;-60
2023/03/12 02:37:27;;;;;;;;;;;;;;;0.02;nan;98323.97;5010175;28;19940;-60
2023/03/12 02:40:02;;;;;;;;;;;;;;;-0.01;nan;98336.53;5011246;28;19926;-61
2023/03/12 02:42:28;;;;;;;;;;;;;;;-0.05;nan;98335.63;5015453;28;19921;-60
2023/03/12 02:44:53;;;;;;;;;;;;;;;-0.14;nan;98342.16;5014189;28;19925;-60
2023/03/12 02:47:18;;;;;;;;;;;;;;;-0.20;nan;98344.56;5011496;28;19925;-60
2023/03/12 02:49:45;;;;;;;;;;;;;;;-0.21;nan;98343.69;5016179;28;20399;-60
2023/03/12 02:52:10;;;;;;;;;;;;;;;-0.29;nan;98344.38;5011992;28;19933;-60
2023/03/12 02:54:37;;;;;;;;;;;;;;;-0.37;nan;98341.72;5020616;28;20098;-60
2023/03/12 02:57:02;;;;;;;;;;;;;;;-0.47;nan;98347.41;5018693;28;19975;-61
2023/03/12 02:59:30;;;;;;;;;;;;;;;-0.57;nan;98351.41;5009097;28;19987;-61
2023/03/12 03:01:58;;;;;;;;;;;;;;;-0.66;nan;98360.44;5008974;28;20071;-60
2023/03/12 03:04:25;;;;;;;;;;;;;;;-0.76;nan;98356.03;5020872;28;20012;-59
2023/03/12 03:06:51;;;;;;;;;;;;;;;-0.84;nan;98355.00;5000058;28;20008;-60
2023/03/12 03:09:17;;;;;;;;;;;;;;;-0.94;nan;98357.34;5020433;28;20084;-61
2023/03/12 03:11:42;;;;;;;;;;;;;;;-1.01;nan;98360.53;5010190;28;20287;-60
2023/03/12 03:14:09;;;;;;;;;;;;;;;-1.11;nan;98353.63;5012718;28;19921;-61
2023/03/12 03:16:34;;;;;;;;;;;;;;;-1.16;nan;98365.25;5008862;28;19929;-60
2023/03/12 03:19:00;;;;;;;;;;;;;;;-1.22;nan;98366.75;5014752;28;20292;-61
2023/03/12 03:21:25;;;;;;;;;;;;;;;-1.30;nan;98366.56;5005665;28;19925;-60
2023/03/12 03:23:51;;;;;;;;;;;;;;;-1.35;nan;98374.81;5013899;28;20564;-61
2023/03/12 03:26:18;;;;;;;;;;;;;;;-1.40;nan;98379.78;5009774;28;19921;-60
2023/03/12 03:28:44;;;;;;;;;;;;;;;-1.46;nan;98385.50;5010108;28;19921;-58
2023/03/12 03:31:09;;;;;;;;;;;;;;;-1.55;nan;98381.91;5005957;28;19932;-59
2023/03/12 03:33:38;;;;;;;;;;;;;;;-1.63;nan;98388.41;5008395;28;20016;-62
2023/03/12 03:36:06;;;;;;;;;;;;;;;-1.68;nan;98390.78;5016772;28;20465;-60
2023/03/12 03:38:35;;;;;;;;;;;;;;;-1.74;nan;98389.81;5008747;28;19981;-61
2023/03/12 03:41:02;;;;;;;;;;;;;;;-1.78;nan;98393.06;5009985;28;20323;-61
2023/03/12 03:43:28;;;;;;;;;;;;;;;-1.83;nan;98394.59;5017576;28;19921;-60
2023/03/12 03:46:01;;;;;;;;;;;;;;;-1.89;nan;98392.75;5015582;28;19955;-60
2023/03/12 03:48:28;;;;;;;;;;;;;;;-1.93;nan;98401.03;5009754;28;19925;-61
2023/03/12 03:50:54;;;;;;;;;;;;;;;-1.94;nan;98405.19;5009320;28;19958;-60
2023/03/12 03:53:19;;;;;;;;;;;;;;;-1.92;nan;98405.25;5009057;28;20459;-60
2023/03/12 03:55:45;;;;;;;;;;;;;;;-1.92;nan;98402.75;5017149;28;19983;-59
2023/03/12 03:58:11;;;;;;;;;;;;;;;-1.99;nan;98409.25;5017786;28;19952;-60
2023/03/12 04:00:38;;;;;;;;;;;;;;;-2.05;nan;98410.75;5018081;28;19920;-63
2023/03/12 04:03:03;;;;;;;;;;;;;;;-2.07;nan;98409.84;5020798;28;19927;-60
2023/03/12 04:05:30;;;;;;;;;;;;;;;-2.10;nan;98408.13;5006215;28;20030;-60
2023/03/12 04:07:55;;;;;;;;;;;;;;;-1.96;nan;98409.34;5012366;28;20404;-63
2023/03/12 04:10:24;;;;;;;;;;;;;;;-1.89;nan;98423.75;5006704;28;19921;-61
2023/03/12 04:12:51;;;;;;;;;;;;;;;-1.98;nan;98410.09;5019448;28;19921;-60
2023/03/12 04:15:17;;;;;;;;;;;;;;;-1.95;nan;98417.72;5018059;28;19921;-61
2023/03/12 04:17:43;;;;;;;;;;;;;;;-2.06;nan;98419.09;5014106;28;19971;-61
2023/03/12 04:20:10;;;;;;;;;;;;;;;-2.14;nan;98423.06;5019066;28;19921;-56
2023/03/12 04:22:37;;;;;;;;;;;;;;;-2.20;nan;98426.25;5010862;28;19933;-63
2023/03/12 04:25:03;;;;;;;;;;;;;;;-2.25;nan;98430.31;5012983;28;19937;-62
2023/03/12 04:27:29;;;;;;;;;;;;;;;-2.31;nan;98423.44;5009417;28;19928;-61
2023/03/12 04:29:54;;;;;;;;;;;;;;;-2.32;nan;98425.91;5012563;28;20407;-60
2023/03/12 04:32:20;;;;;;;;;;;;;;;-2.35;nan;98431.72;5011172;28;19921;-62
2023/03/12 04:34:46;;;;;;;;;;;;;;;-2.32;nan;98435.94;5010774;28;20818;-62
2023/03/12 04:37:14;;;;;;;;;;;;;;;-2.32;nan;98438.47;5013866;28;20505;-60
2023/03/12 04:39:41;;;;;;;;;;;;;;;-2.33;nan;98444.28;5027262;28;20011;-61
2023/03/12 04:42:07;;;;;;;;;;;;;;;-2.34;nan;98440.09;5011367;28;20338;-61
2023/03/12 04:44:33;;;;;;;;;;;;;;;-2.33;nan;98445.13;5012528;28;19924;-61
2023/03/12 04:46:59;;;;;;;;;;;;;;;-2.34;nan;98445.09;5019502;28;19952;-60
2023/03/12 04:49:25;;;;;;;;;;;;;;;-2.34;nan;98447.63;5011595;28;19979;-61
2023/03/12 04:51:53;;;;;;;;;;;;;;;-2.34;nan;98450.13;5008929;28;20356;-61
2023/03/12 04:54:20;;;;;;;;;;;;;;;-2.37;nan;98445.00;5018808;28;20151;-62
2023/03/12 04:56:46;;;;;;;;;;;;;;;-2.35;nan;98458.47;5010811;28;19999;-61
2023/03/12 04:59:11;;;;;;;;;;;;;;;-2.26;nan;98453.72;5016452;28;19956;-60
2023/03/12 05:01:40;;;;;;;;;;;;;;;-2.29;nan;98461.13;5016384;28;20454;-61
2023/03/12 05:04:11;;;;;;;;;;;;;;;-2.29;nan;98470.34;5013447;28;20020;-61
2023/03/12 05:06:37;;;;;;;;;;;;;;;-2.28;nan;98460.31;5012457;28;20433;-60
2023/03/12 05:09:03;;;;;;;;;;;;;;;-2.31;nan;98473.66;5009699;28;20403;-61
2023/03/12 05:11:29;;;;;;;;;;;;;;;-2.32;nan;98466.91;5019941;28;20316;-60
2023/03/12 05:13:54;;;;;;;;;;;;;;;-2.37;nan;98475.13;5011469;28;19925;-61
2023/03/12 05:16:21;;;;;;;;;;;;;;;-2.37;nan;98472.59;5007398;28;19948;-59
2023/03/12 05:18:47;;;;;;;;;;;;;;;-2.43;nan;98474.97;5007304;28;20083;-60
2023/03/12 05:21:15;;;;;;;;;;;;;;;-2.46;nan;98480.72;5010247;28;20253;-61
2023/03/12 05:23:41;;;;;;;;;;;;;;;-2.44;nan;98485.78;5019144;28;19921;-61
2023/03/12 05:26:18;;;;;;;;;;;;;;;-2.47;nan;98488.22;5019994;28;19925;-60
2023/03/12 05:28:45;;;;;;;;;;;;;;;-2.50;nan;98485.59;5016812;28;20012;-60
2023/03/12 05:31:11;;;;;;;;;;;;;;;-2.49;nan;98490.69;5018867;28;20055;-62
2023/03/12 05:33:38;;;;;;;;;;;;;;;-2.49;nan;98487.31;4994551;28;19925;-61
2023/03/12 05:36:03;;;;;;;;;;;;;;;-2.51;nan;98489.81;5016258;28;19944;-59
2023/03/12 05:38:29;;;;;;;;;;;;;;;-2.52;nan;98490.59;5015209;28;20011;-61
2023/03/12 05:40:56;;;;;;;;;;;;;;;-2.51;nan;98499.84;5018748;28;19956;-59
2023/03/12 05:43:22;;;;;;;;;;;;;;;-2.49;nan;98502.38;5010947;28;19971;-60
2023/03/12 05:45:48;;;;;;;;;;;;;;;-2.47;nan;98510.81;5009624;28;19926;-61
2023/03/12 05:48:14;;;;;;;;;;;;;;;-2.44;nan;98511.75;5011785;28;19931;-60
2023/03/12 05:50:39;;;;;;;;;;;;;;;-2.38;nan;98514.44;5010574;28;20423;-61
2023/03/12 05:53:05;;;;;;;;;;;;;;;-2.26;nan;98518.13;5008973;28;19951;-61
2023/03/12 05:55:35;;;;;;;;;;;;;;;-2.20;nan;98529.19;5012932;28;20427;-61
2023/03/12 05:58:01;;;;;;;;;;;;;;;-2.10;nan;98526.13;5010878;28;19921;-60
2023/03/12 06:00:27;;;;;;;;;;;;;;;-1.98;nan;98531.50;5009498;28;19921;-61
2023/03/12 06:02:54;;;;;;;;;;;;;;;-1.89;nan;98536.78;5014522;28;19929;-61
2023/03/12 06:05:20;;;;;;;;;;;;;;;-1.78;nan;98534.56;5025622;28;19961;-60
2023/03/12 06:07:46;;;;;;;;;;;;;;;-1.68;nan;98533.16;5016343;28;19925;-61
2023/03/12 06:10:11;;;;;;;;;;;;;;;-1.55;nan;98537.72;5005744;28;19976;-61
2023/03/12 06:12:37;;;;;;;;;;;;;;;-1.45;nan;98534.66;5008985;28;19995;-61
2023/03/12 06:15:03;;;;;;;;;;;;;;;-1.31;nan;98537.50;5006187;28;20303;-60
2023/03/12 06:17:30;;;;;;;;;;;;;;;-1.14;nan;98529.59;5016088;28;19925;-59
2023/03/12 06:19:56;;;;;;;;;;;;;;;-1.01;nan;98534.09;5005867;28;19972;-59
2023/03/12 06:22:22;;;;;;;;;;;;;;;-0.87;nan;98536.13;4987952;28;19932;-59
2023/03/12 06:24:48;;;;;;;;;;;;;;;-0.73;nan;98533.13;5013304;28;19925;-61
2023/03/12 06:27:15;;;;;;;;;;;;;;;-0.59;nan;98535.94;5010502;28;20091;-59
2023/03/12 06:29:41;;;;;;;;;;;;;;;-0.41;nan;98536.38;5005274;28;19929;-60
2023/03/12 06:32:07;;;;;;;;;;;;;;;-0.25;nan;98538.41;5008765;28;20396;-60
2023/03/12 06:34:32;;;;;;;;;;;;;;;-0.11;nan;98539.56;5009871;28;19927;-60
2023/03/12 06:36:59;;;;;;;;;;;;;;;0.00;nan;98543.16;5007771;28;19995;-60
2023/03/12 06:39:24;;;;;;;;;;;;;;;0.20;nan;98545.25;5009169;28;20288;-61
2023/03/12 06:41:50;;;;;;;;;;;;;;;0.34;nan;98548.91;5006907;28;19968;-60
2023/03/12 06:44:15;;;;;;;;;;;;;;;0.47;nan;98550.81;5008743;28;19941;-59
2023/03/12 06:46:43;;;;;;;;;;;;;;;0.57;nan;98551.84;5007703;28;20369;-60
2023/03/12 06:49:09;;;;;;;;;;;;;;;0.61;nan;98559.50;5013178;28;20020;-60
2023/03/12 06:51:34;;;;;;;;;;;;;;;0.75;nan;98564.81;5008988;28;19933;-60
2023/03/12 06:54:01;;;;;;;;;;;;;;;0.87;nan;98565.88;5007156;28;19921;-60
2023/03/12 06:56:27;;;;;;;;;;;;;;;0.99;nan;98570.28;5006107;28;19921;-60
2023/03/12 06:58:52;;;;;;;;;;;;;;;1.12;nan;98567.16;5006774;28;19982;-60
2023/03/12 07:01:18;;;;;;;;;;;;;;;1.25;nan;98570.75;5008014;28;19933;-60
2023/03/12 07:03:44;;;;;;;;;;;;;;;1.39;nan;98561.72;5010692;28;20060;-61
2023/03/12 07:06:13;;;;;;;;;;;;;;;1.60;nan;98566.25;5008876;28;19925;-60
2023/03/12 07:08:39;;;;;;;;;;;;;;;1.71;nan;98570.63;5005803;28;19925;-60
2023/03/12 07:11:05;;;;;;;;;;;;;;;1.80;nan;98572.44;5004552;28;19990;-59
2023/03/12 07:13:30;;;;;;;;;;;;;;;1.97;nan;98568.50;5007160;28;19993;-58
2023/03/12 07:15:56;;;;;;;;;;;;;;;2.04;nan;98564.34;5007603;28;20008;-60
2023/03/12 07:18:22;;;;;;;;;;;;;;;2.06;nan;98561.03;5009706;28;19932;-59
2023/03/12 07:20:47;;;;;;;;;;;;;;;2.07;nan;98565.28;5007658;28;19921;-61
2023/03/12 07:23:13;;;;;;;;;;;;;;;2.13;nan;98561.94;5009390;28;19925;-60
2023/03/12 07:25:39;;;;;;;;;;;;;;;2.32;nan;98563.91;5005045;28;19932;-64
2023/03/12 07:28:05;;;;;;;;;;;;;;;2.46;nan;98564.91;5006571;28;20471;-60
2023/03/12 07:30:32;;;;;;;;;;;;;;;2.49;nan;98559.91;5007139;28;20004;-60
2023/03/12 07:33:08;;;;;;;;;;;;;;;2.71;nan;98571.13;5008891;28;19929;-60
2023/03/12 07:35:34;;;;;;;;;;;;;;;2.45;nan;98572.50;5020193;28;19968;-59
2023/03/12 07:38:00;;;;;;;;;;;;;;;2.67;nan;98567.66;5011038;28;20037;-60
2023/03/12 07:40:25;;;;;;;;;;;;;;;2.86;nan;98578.00;5012113;28;19932;-60
2023/03/12 07:42:51;;;;;;;;;;;;;;;3.08;nan;98572.31;5010150;28;19971;-59
2023/03/12 07:45:17;;;;;;;;;;;;;;;3.17;nan;98564.81;5009171;28;19948;-60
2023/03/12 07:47:42;;;;;;;;;;;;;;;3.36;nan;98570.88;5013239;28;19925;-60
2023/03/12 07:50:08;;;;;;;;;;;;;;;3.41;nan;98574.31;5011591;28;20005;-60
2023/03/12 07:52:34;;;;;;;;;;;;;;;3.49;nan;98573.53;5008563;28;20086;-60
2023/03/12 07:54:59;;;;;;;;;;;;;;;3.53;nan;98570.19;5008525;28;20432;-59
2023/03/12 07:57:25;;;;;;;;;;;;;;;3.74;nan;98568.63;5012731;28;19925;-60
2023/03/12 07:59:50;;;;;;;;;;;;;;;3.86;nan;98564.50;5012094;28;20022;-58
2023/03/12 08:02:16;;;;;;;;;;;;;;;3.85;nan;98570.44;5010487;28;19980;-59
2023/03/12 08:04:42;;;;;;;;;;;;;;;3.90;nan;98575.53;5011623;28;19970;-59
2023/03/12 08:07:08;;;;;;;;;;;;;;;3.97;nan;98572.19;5009578;28;19921;-60
2023/03/12 08:09:33;;;;;;;;;;;;;;;4.08;nan;98575.63;5013402;28;19925;-61
2023/03/12 08:11:59;;;;;;;;;;;;;;;4.16;nan;98573.97;5012415;28;19971;-59
2023/03/12 08:14:25;;;;;;;;;;;;;;;4.29;nan;98573.19;5010976;28;20423;-59
2023/03/12 08:16:51;;;;;;;;;;;;;;;4.40;nan;98569.03;5008233;28;19979;-59
2023/03/12 08:19:16;;;;;;;;;;;;;;;4.57;nan;98576.72;5010949;28;20328;-59
2023/03/12 08:21:41;;;;;;;;;;;;;;;4.62;nan;98574.19;5012314;28;19920;-59
2023/03/12 08:24:07;;;;;;;;;;;;;;;4.84;nan;98573.41;5010068;28;20396;-59
2023/03/12 08:26:33;;;;;;;;;;;;;;;5.05;nan;98566.69;5008527;28;19936;-58
2023/03/12 08:29:02;;;;;;;;;;;;;;;5.15;nan;98566.72;5016466;28;20506;-57
2023/03/12 08:31:27;;;;;;;;;;;;;;;5.32;nan;98568.41;5010414;28;20088;-59
2023/03/12 08:33:53;;;;;;;;;;;;;;;5.56;nan;98576.91;5008989;28;19924;-60
2023/03/12 08:36:18;;;;;;;;;;;;;;;5.47;nan;98560.78;5012376;28;19980;-59
2023/03/12 08:38:44;;;;;;;;;;;;;;;5.76;nan;98567.59;5008729;28;19968;-58
2023/03/12 08:41:09;;;;;;;;;;;;;;;5.64;nan;98577.75;5007932;28;20059;-59
2023/03/12 08:43:35;;;;;;;;;;;;;;;5.51;nan;98565.06;5015728;28;20334;-58
2023/03/12 08:46:01;;;;;;;;;;;;;;;5.48;nan;98575.19;5010055;28;19936;-58
2023/03/12 08:48:28;;;;;;;;;;;;;;;5.15;nan;98571.78;5010749;28;19933;-58
2023/03/12 08:50:55;;;;;;;;;;;;;;;4.86;nan;98581.91;5008519;28;20031;-60
2023/03/12 08:53:21;;;;;;;;;;;;;;;4.97;nan;98577.69;5009780;28;20011;-58
2023/03/12 08:55:46;;;;;;;;;;;;;;;4.71;nan;98590.28;5011369;28;19971;-59
2023/03/12 08:58:12;;;;;;;;;;;;;;;4.53;nan;98585.16;5011722;28;19921;-59
2023/03/12 09:00:38;;;;;;;;;;;;;;;4.66;nan;98583.53;5019483;28;20308;-59
2023/03/12 09:03:04;;;;;;;;;;;;;;;4.97;nan;98583.59;5010800;28;19964;-58
2023/03/12 09:05:30;;;;;;;;;;;;;;;5.09;nan;98580.28;5010819;28;20234;-59
2023/03/12 09:07:56;;;;;;;;;;;;;;;5.20;nan;98578.59;5010171;28;19925;-59
2023/03/12 09:10:22;;;;;;;;;;;;;;;5.29;nan;98578.59;5009453;28;19960;-59
2023/03/12 09:12:47;;;;;;;;;;;;;;;5.01;nan;98582.78;5012064;28;20070;-59
2023/03/12 09:15:13;;;;;;;;;;;;;;;4.98;nan;98580.22;5010255;28;19977;-59
2023/03/12 09:17:38;;;;;;;;;;;;;;;4.97;nan;98582.75;5009720;28;19995;-59
2023/03/12 09:20:07;;;;;;;;;;;;;;;5.23;nan;98576.03;5007428;28;19921;-59
2023/03/12 09:22:35;;;;;;;;;;;;;;;5.31;nan;98569.25;5009759;28;19926;-57
2023/03/12 09:25:04;;;;;;;;;;;;;;;5.31;nan;98583.66;5009099;28;20011;-59
2023/03/12 09:27:34;;;;;;;;;;;;;;;5.35;nan;98565.03;5012082;28;20012;-59
2023/03/12 09:29:59;;;;;;;;;;;;;;;5.49;nan;98569.28;5007492;28;20343;-59
2023/03/12 09:32:26;;;;;;;;;;;;;;;5.60;nan;98583.69;5008273;28;19933;-57
2023/03/12 09:34:51;;;;;;;;;;;;;;;5.44;nan;98567.56;5022154;28;20202;-58
2023/03/12 09:37:17;;;;;;;;;;;;;;;5.58;nan;98572.66;5007548;28;20403;-58
2023/03/12 09:39:42;;;;;;;;;;;;;;;5.84;nan;98561.63;5010590;28;19932;-59
2023/03/12 09:42:21;;;;;;;;;;;;;;;5.81;nan;98565.88;5015604;28;19933;-60
2023/03/12 09:44:48;;;;;;;;;;;;;;;5.80;nan;98567.56;5010369;28;19928;-58
2023/03/12 09:47:30;;;;;;;;;;;;;;;5.96;nan;98564.19;5011458;28;19921;-60
2023/03/12 09:50:02;;;;;;;;;;;;;;;5.86;nan;98565.03;5007725;28;19936;-60
2023/03/12 09:52:38;;;;;;;;;;;;;;;6.13;nan;98566.69;5006485;28;20478;-59
2023/03/12 09:55:07;;;;;;;;;;;;;;;6.26;nan;98557.31;5009417;28;20014;-59
2023/03/12 09:57:33;;;;;;;;;;;;;;;6.51;nan;98555.53;5011319;28;20558;-60
2023/03/12 09:59:58;;;;;;;;;;;;;;;6.23;nan;98563.28;5014051;28;20455;-59
2023/03/12 10:02:32;;;;;;;;;;;;;;;5.91;nan;98555.72;5009579;28;19982;-60
2023/03/12 10:05:04;;;;;;;;;;;;;;;6.12;nan;98557.34;5010373;28;19921;-60
2023/03/12 10:07:58;;;;;;;;;;;;;;;6.47;nan;98544.50;5009416;28;19927;-60
2023/03/12 10:10:44;;;;;;;;;;;;;;;6.54;nan;98547.88;4977886;28;20333;-59
2023/03/12 10:13:24;;;;;;;;;;;;;;;6.30;nan;98543.72;4975881;28;19921;-59
2023/03/12 10:15:52;;;;;;;;;;;;;;;6.67;nan;98542.72;4975520;28;19947;-59
2023/03/12 10:18:48;;;;;;;;;;;;;;;6.88;nan;98549.41;4976640;28;19925;-59
2023/03/12 10:21:14;;;;;;;;;;;;;;;6.70;nan;98552.91;4974941;28;20596;-59
2023/03/12 10:23:48;;;;;;;;;;;;;;;7.05;nan;98547.59;4977714;28;19921;-59
2023/03/12 10:26:25;;;;;;;;;;;;;;;7.26;nan;98544.91;4977749;28;19922;-60
2023/03/12 10:28:56;;;;;;;;;;;;;;;7.44;nan;98541.38;4978938;28;20048;-60
2023/03/12 10:31:27;;;;;;;;;;;;;;;7.55;nan;98536.19;4978481;28;20352;-59
2023/03/12 10:33:57;;;;;;;;;;;;;;;7.32;nan;98533.81;4978663;28;19922;-59
2023/03/12 10:36:25;;;;;;;;;;;;;;;7.31;nan;98532.97;4978020;28;20471;-60
2023/03/12 10:38:52;;;;;;;;;;;;;;;7.58;nan;98533.59;4962470;28;20020;-59
2023/03/12 10:41:20;;;;;;;;;;;;;;;7.80;nan;98522.34;4978545;28;19929;-60
2023/03/12 10:43:45;;;;;;;;;;;;;;;7.80;nan;98524.91;4975008;28;20305;-60
2023/03/12 10:46:31;;;;;;;;;;;;;;;8.17;nan;98531.31;4966484;28;19921;-60
2023/03/12 10:49:15;;;;;;;;;;;;;;;8.46;nan;98520.78;4997943;28;19925;-60
2023/03/12 10:51:53;;;;;;;;;;;;;;;8.69;nan;98517.94;5008205;28;19943;-59
2023/03/12 10:54:32;;;;;;;;;;;;;;;8.56;nan;98516.41;5008677;28;20069;-59
2023/03/12 10:56:58;;;;;;;;;;;;;;;8.88;nan;98518.53;5010480;28;19963;-59
2023/03/12 10:59:28;;;;;;;;;;;;;;;8.98;nan;98505.59;5014620;28;20460;-60
2023/03/12 11:01:54;;;;;;;;;;;;;;;9.01;nan;98507.25;5006996;28;20364;-60
2023/03/12 11:04:22;;;;;;;;;;;;;;;9.02;nan;98501.28;5011164;28;20221;-60
2023/03/12 11:07:06;;;;;;;;;;;;;;;9.23;nan;98495.84;5005997;28;20348;-61
2023/03/12 11:09:32;;;;;;;;;;;;;;;9.55;nan;98496.13;5004260;28;20331;-60
2023/03/12 11:11:58;;;;;;;;;;;;;;;9.53;nan;98491.94;5011997;28;19992;-59
2023/03/12 11:14:28;;;;;;;;;;;;;;;9.92;nan;98487.81;5008309;28;19925;-60
2023/03/12 11:16:55;;;;;;;;;;;;;;;9.95;nan;98488.59;5008559;28;20032;-60
2023/03/12 11:19:29;;;;;;;;;;;;;;;9.88;nan;98487.03;5005561;28;19971;-59
2023/03/12 11:21:57;;;;;;;;;;;;;;;10.34;nan;98488.72;5006669;28;20128;-60
2023/03/12 11:24:23;;;;;;;;;;;;;;;10.41;nan;98482.59;5008269;28;19978;-58
2023/03/12 11:26:50;;;;;;;;;;;;;;;10.72;nan;98486.19;5008310;28;19921;-61
2023/03/12 11:29:21;;;;;;;;;;;;;;;10.53;nan;98483.19;5007676;28;19925;-61
2023/03/12 11:31:56;;;;;;;;;;;;;;;10.82;nan;98489.41;5005543;28;19921;-61
2023/03/12 11:34:25;;;;;;;;;;;;;;;10.88;nan;98473.88;5008255;28;19921;-61
2023/03/12 11:37:05;;;;;;;;;;;;;;;10.60;nan;98481.34;5006958;28;19979;-60
2023/03/12 11:39:36;;;;;;;;;;;;;;;10.46;nan;98480.78;5006638;28;20012;-61
2023/03/12 11:42:20;;;;;;;;;;;;;;;10.26;nan;98472.66;5007335;28;19921;-60
2023/03/12 11:44:57;;;;;;;;;;;;;;;10.43;nan;98470.59;5008064;28;19921;-59
2023/03/12 11:47:35;;;;;;;;;;;;;;;10.46;nan;98465.41;5008262;28;20167;-60
2023/03/12 11:50:17;;;;;;;;;;;;;;;10.09;nan;98466.13;5007947;28;19972;-59
2023/03/12 11:53:07;;;;;;;;;;;;;;;10.30;nan;98458.91;5008968;28;20007;-60
2023/03/12 11:55:42;;;;;;;;;;;;;;;10.06;nan;98450.81;5008026;28;20012;-59
2023/03/12 11:58:19;;;;;;;;;;;;;;;10.28;nan;98450.41;5008152;28;19922;-59
2023/03/12 12:01:03;;;;;;;;;;;;;;;10.19;nan;98450.59;5008726;28;20046;-59
2023/03/12 12:03:43;;;;;;;;;;;;;;;10.50;nan;98452.50;5008889;28;19974;-59
2023/03/12 12:06:27;;;;;;;;;;;;;;;10.78;nan;98450.16;5008585;28;20104;-59
2023/03/12 12:08:53;;;;;;;;;;;;;;;11.14;nan;98443.34;5007948;28;19929;-60
2023/03/12 12:11:23;;;;;;;;;;;;;;;11.24;nan;98442.25;5008535;28;19921;-59
2023/03/12 12:14:10;;;;;;;;;;;;;;;11.12;nan;98445.06;5005962;28;19921;-60
2023/03/12 12:16:46;;;;;;;;;;;;;;;10.91;nan;98443.88;5004082;28;19979;-59
2023/03/12 12:19:12;;;;;;;;;;;;;;;10.51;nan;98451.63;5008267;28;19931;-58
2023/03/12 12:21:47;;;;;;;;;;;;;;;10.34;nan;98445.16;5008099;28;19921;-58
2023/03/12 12:24:31;;;;;;;;;;;;;;;10.42;nan;98440.72;5010738;28;19921;-58
2023/03/12 12:27:03;;;;;;;;;;;;;;;10.59;nan;98443.75;5007452;28;19921;-59
2023/03/12 12:29:40;;;;;;;;;;;;;;;10.81;nan;98446.69;5010497;28;19921;-58
2023/03/12 12:32:11;;;;;;;;;;;;;;;10.42;nan;98443.28;5012086;28;19925;-60
2023/03/12 12:34:37;;;;;;;;;;;;;;;10.72;nan;98444.34;5011820;28;20298;-58
2023/03/12 12:37:21;;;;;;;;;;;;;;;10.79;nan;98439.03;4998107;28;19917;-60
2023/03/12 12:39:51;;;;;;;;;;;;;;;10.95;nan;98435.22;5009380;28;20446;-58
2023/03/12 12:42:21;;;;;;;;;;;;;;;11.14;nan;98429.66;5012273;28;19921;-58
2023/03/12 12:44:49;;;;;;;;;;;;;;;11.20;nan;98439.78;5011376;28;19928;-63
2023/03/12 12:47:17;;;;;;;;;;;;;;;11.24;nan;98431.13;5010269;28;19928;-59
2023/03/12 12:49:46;;;;;;;;;;;;;;;11.37;nan;98440.22;5008512;28;20284;-59
2023/03/12 12:52:12;;;;;;;;;;;;;;;11.44;nan;98439.16;5007618;28;20170;-61
2023/03/12 12:54:44;;;;;;;;;;;;;;;11.25;nan;98433.63;5011083;28;20392;-59
2023/03/12 12:57:09;;;;;;;;;;;;;;;11.21;nan;98424.31;5021019;28;19944;-59
2023/03/12 12:59:35;;;;;;;;;;;;;;;11.27;nan;98420.78;5015534;28;20493;-59
2023/03/12 13:02:02;;;;;;;;;;;;;;;10.96;nan;98418.09;5014905;28;20019;-59
2023/03/12 13:04:35;;;;;;;;;;;;;;;11.32;nan;98421.50;5012040;28;19927;-59
2023/03/12 13:07:21;;;;;;;;;;;;;;;11.53;nan;98422.69;5011116;28;19922;-59
2023/03/12 13:09:49;;;;;;;;;;;;;;;11.64;nan;98426.63;5005547;28;19922;-59
2023/03/12 13:12:19;;;;;;;;;;;;;;;11.58;nan;98424.25;5010219;28;19925;-58
2023/03/12 13:14:46;;;;;;;;;;;;;;;11.71;nan;98424.78;5011063;28;19932;-59
2023/03/12 13:17:25;;;;;;;;;;;;;;;11.62;nan;98423.28;5009455;28;19921;-58
2023/03/12 13:19:53;;;;;;;;;;;;;;;11.38;nan;98432.44;5009120;28;20016;-59